THY7FY LTFM-LTAJ
Flight info
| Callsign | THY7FY |
|---|---|
| Flight time | N/A |
| Altitude | 35000 |
| Route | VICEN1H/18 VICEN UT57 VEVUD UT341 BAG UL605 YUCEL UA17 BALAX UL605 RATSI UA17 BOYAT |
| Aircraft | A321/M-SDE3FGHIRWY/LB1 |
Departure
| Time | N/A |
|---|---|
| Airport | İstanbul Airport (LTFM) |
Arrival
| Time | 2026-04-26 13:28 |
|---|---|
| Airport | Gaziantep Oğuzeli International Airport (LTAJ) |
| Time | Latitude | Longitude | Altitude | Speed | Heading |
|---|---|---|---|---|---|
| 2026-04-26 13:08 | 37.86176 | 36.18536 | 31030 ft | 444 kts | 134° |
| 2026-04-26 13:08 | 37.84127 | 36.21447 | 30487 ft | 441 kts | 134° |
| 2026-04-26 13:08 | 37.82099 | 36.24331 | 29928 ft | 437 kts | 134° |
| 2026-04-26 13:09 | 37.80089 | 36.27196 | 29355 ft | 434 kts | 134° |
| 2026-04-26 13:09 | 37.78096 | 36.30038 | 28764 ft | 431 kts | 134° |
| 2026-04-26 13:09 | 37.76114 | 36.32857 | 28191 ft | 428 kts | 134° |
| 2026-04-26 13:09 | 37.74143 | 36.35657 | 27601 ft | 425 kts | 134° |
| 2026-04-26 13:10 | 37.72186 | 36.38438 | 27012 ft | 422 kts | 134° |
| 2026-04-26 13:10 | 37.70266 | 36.41163 | 26423 ft | 420 kts | 134° |
| 2026-04-26 13:10 | 37.68330 | 36.43909 | 25825 ft | 417 kts | 134° |
| 2026-04-26 13:10 | 37.66404 | 36.46635 | 25214 ft | 415 kts | 134° |
| 2026-04-26 13:11 | 37.64490 | 36.49345 | 24623 ft | 412 kts | 134° |
| 2026-04-26 13:11 | 37.62587 | 36.52040 | 24045 ft | 410 kts | 134° |
| 2026-04-26 13:11 | 37.60696 | 36.54718 | 23480 ft | 408 kts | 134° |
| 2026-04-26 13:11 | 37.58813 | 36.57380 | 22931 ft | 406 kts | 134° |
| 2026-04-26 13:12 | 37.56940 | 36.60023 | 22408 ft | 403 kts | 134° |
| 2026-04-26 13:12 | 37.55076 | 36.62650 | 21879 ft | 401 kts | 134° |
| 2026-04-26 13:12 | 37.53220 | 36.65261 | 21373 ft | 399 kts | 134° |
| 2026-04-26 13:12 | 37.51256 | 36.67641 | 21126 ft | 384 kts | 148° |
| 2026-04-26 13:13 | 37.48925 | 36.69083 | 20949 ft | 367 kts | 164° |
| 2026-04-26 13:13 | 37.46522 | 36.70069 | 20543 ft | 362 kts | 161° |
| 2026-04-26 13:13 | 37.44293 | 36.71548 | 20085 ft | 362 kts | 152° |
| 2026-04-26 13:13 | 37.42170 | 36.73248 | 19628 ft | 362 kts | 144° |
| 2026-04-26 13:14 | 37.40478 | 36.75585 | 19163 ft | 364 kts | 125° |
| 2026-04-26 13:14 | 37.39319 | 36.78415 | 18662 ft | 364 kts | 116° |
| 2026-04-26 13:14 | 37.38279 | 36.81314 | 18168 ft | 363 kts | 116° |
| 2026-04-26 13:14 | 37.37251 | 36.84203 | 17683 ft | 361 kts | 116° |
| 2026-04-26 13:15 | 37.36231 | 36.87068 | 17207 ft | 358 kts | 116° |
| 2026-04-26 13:15 | 37.35181 | 36.89892 | 16738 ft | 354 kts | 122° |
| 2026-04-26 13:15 | 37.33748 | 36.92324 | 16279 ft | 349 kts | 131° |
| 2026-04-26 13:15 | 37.32282 | 36.94798 | 15798 ft | 348 kts | 125° |
| 2026-04-26 13:16 | 37.31033 | 36.97347 | 15347 ft | 347 kts | 123° |
| 2026-04-26 13:16 | 37.29803 | 36.99935 | 14897 ft | 344 kts | 123° |
| 2026-04-26 13:16 | 37.28582 | 37.02508 | 14459 ft | 341 kts | 123° |
| 2026-04-26 13:16 | 37.27372 | 37.05059 | 14017 ft | 339 kts | 123° |
| 2026-04-26 13:17 | 37.24981 | 37.10116 | 13126 ft | 334 kts | 123° |
| 2026-04-26 13:17 | 37.23798 | 37.12618 | 12688 ft | 332 kts | 123° |
| 2026-04-26 13:18 | 37.21395 | 37.17516 | 11812 ft | 325 kts | 133° |
| 2026-04-26 13:18 | 37.19748 | 37.19330 | 11663 ft | 308 kts | 151° |
| 2026-04-26 13:18 | 37.16045 | 37.21790 | 10975 ft | 297 kts | 155° |
| 2026-04-26 13:19 | 37.14209 | 37.22971 | 10464 ft | 297 kts | 155° |
| 2026-04-26 13:19 | 37.12377 | 37.24144 | 10091 ft | 295 kts | 154° |
| 2026-04-26 13:19 | 37.10564 | 37.25327 | 9718 ft | 293 kts | 153° |
| 2026-04-26 13:19 | 37.08779 | 37.26539 | 9324 ft | 291 kts | 152° |
| 2026-04-26 13:20 | 37.06995 | 37.27768 | 8541 ft | 302 kts | 152° |
| 2026-04-26 13:20 | 37.05174 | 37.29030 | 7742 ft | 296 kts | 151° |
| 2026-04-26 13:20 | 37.03390 | 37.30265 | 6959 ft | 290 kts | 151° |
| 2026-04-26 13:20 | 37.01638 | 37.31471 | 6199 ft | 285 kts | 151° |
| 2026-04-26 13:21 | 36.99870 | 37.32545 | 5469 ft | 281 kts | 163° |
| 2026-04-26 13:21 | 36.98595 | 37.32896 | 5140 ft | 274 kts | 170° |
| 2026-04-26 13:21 | 36.96223 | 37.32821 | 4982 ft | 243 kts | 189° |
| 2026-04-26 13:21 | 36.94693 | 37.32142 | 4993 ft | 230 kts | 216° |
| 2026-04-26 13:22 | 36.93590 | 37.30702 | 5005 ft | 231 kts | 234° |
| 2026-04-26 13:22 | 36.92759 | 37.28990 | 4827 ft | 231 kts | 248° |
| 2026-04-26 13:22 | 36.92604 | 37.27036 | 4620 ft | 227 kts | 282° |
| 2026-04-26 13:22 | 36.93276 | 37.25258 | 4613 ft | 230 kts | 307° |
| 2026-04-26 13:23 | 36.94475 | 37.24027 | 4625 ft | 221 kts | 334° |
| 2026-04-26 13:23 | 36.95950 | 37.23636 | 4616 ft | 216 kts | 3° |
| 2026-04-26 13:23 | 36.97334 | 37.24108 | 4599 ft | 197 kts | 30° |
| 2026-04-26 13:23 | 36.98334 | 37.25169 | 4601 ft | 185 kts | 54° |
| 2026-04-26 13:24 | 36.98903 | 37.26581 | 4601 ft | 181 kts | 77° |
| 2026-04-26 13:24 | 36.98996 | 37.28121 | 4607 ft | 177 kts | 99° |
| 2026-04-26 13:24 | 36.98714 | 37.29590 | 4609 ft | 172 kts | 106° |
| 2026-04-26 13:24 | 36.98416 | 37.30992 | 4619 ft | 163 kts | 108° |
| 2026-04-26 13:25 | 36.98130 | 37.32349 | 4615 ft | 157 kts | 107° |
| 2026-04-26 13:25 | 36.97854 | 37.33652 | 4604 ft | 154 kts | 107° |
| 2026-04-26 13:25 | 36.97574 | 37.34957 | 4526 ft | 157 kts | 107° |
| 2026-04-26 13:25 | 36.97293 | 37.36258 | 4235 ft | 153 kts | 107° |
| 2026-04-26 13:26 | 36.97017 | 37.37535 | 3976 ft | 152 kts | 107° |
| 2026-04-26 13:26 | 36.96747 | 37.38806 | 3735 ft | 151 kts | 107° |
| 2026-04-26 13:26 | 36.96498 | 37.40088 | 3515 ft | 152 kts | 105° |
| 2026-04-26 13:26 | 36.96245 | 37.41360 | 3299 ft | 151 kts | 108° |
| 2026-04-26 13:27 | 36.95951 | 37.42618 | 3017 ft | 150 kts | 107° |
| 2026-04-26 13:27 | 36.95676 | 37.43880 | 2762 ft | 151 kts | 107° |
| 2026-04-26 13:27 | 36.95396 | 37.45143 | 2509 ft | 150 kts | 106° |
| 2026-04-26 13:27 | 36.95127 | 37.46400 | 2279 ft | 150 kts | 108° |
| 2026-04-26 13:28 | 36.94870 | 37.47584 | 2225 ft | 123 kts | 105° |
| 2026-04-26 13:28 | 36.94721 | 37.48272 | 2226 ft | 55 kts | 105° |
| 2026-04-26 13:28 | 36.94643 | 37.48634 | 2223 ft | 26 kts | 105° |
| 2026-04-26 13:28 | 36.94582 | 37.48793 | 2225 ft | 17 kts | 132° |
| 2026-04-26 13:29 | 36.94506 | 37.48889 | 2221 ft | 11 kts | 135° |
| 2026-04-26 13:29 | 36.94467 | 37.48927 | 2223 ft | 11 kts | 159° |
| 2026-04-26 13:29 | 36.94427 | 37.48857 | 2221 ft | 9 kts | 285° |
| 2026-04-26 13:29 | 36.94444 | 37.48778 | 2223 ft | 10 kts | 285° |
| 2026-04-26 13:30 | 36.94456 | 37.48723 | 2223 ft | 10 kts | 285° |
| 2026-04-26 13:30 | 36.94482 | 37.48604 | 2222 ft | 11 kts | 285° |
| 2026-04-26 13:30 | 36.94502 | 37.48510 | 2222 ft | 12 kts | 285° |
| 2026-04-26 13:30 | 36.94524 | 37.48410 | 2225 ft | 12 kts | 285° |
| 2026-04-26 13:31 | 36.94547 | 37.48304 | 2224 ft | 13 kts | 285° |
| 2026-04-26 13:31 | 36.94572 | 37.48190 | 2226 ft | 14 kts | 285° |
| 2026-04-26 13:31 | 36.94598 | 37.48068 | 2221 ft | 15 kts | 285° |
| 2026-04-26 13:31 | 36.94625 | 37.47944 | 2223 ft | 14 kts | 285° |
| 2026-04-26 13:32 | 36.94644 | 37.47857 | 2225 ft | 7 kts | 286° |
| 2026-04-26 13:32 | 36.94639 | 37.47802 | 2225 ft | 7 kts | 229° |
| 2026-04-26 13:32 | 36.94591 | 37.47783 | 2228 ft | 8 kts | 193° |
| 2026-04-26 13:32 | 36.94532 | 37.47766 | 2225 ft | 9 kts | 193° |
| 2026-04-26 13:33 | 36.94515 | 37.47761 | 2225 ft | 0 kts | 193° |